createdAt,value
2018-07-26T00:00:24.953Z,21.85
2018-07-26T00:02:18.717Z,21.71
2018-07-26T00:03:18.215Z,21.73
2018-07-26T00:05:11.062Z,21.66
2018-07-26T00:06:11.056Z,21.71
2018-07-26T00:08:03.784Z,21.55
2018-07-26T00:09:03.696Z,21.53
2018-07-26T00:10:56.526Z,21.56
2018-07-26T00:11:56.422Z,21.51
2018-07-26T00:13:49.282Z,21.67
2018-07-26T00:14:49.359Z,21.69
2018-07-26T00:16:42.084Z,21.69
2018-07-26T00:17:41.959Z,21.67
2018-07-26T00:19:35.322Z,21.63
2018-07-26T00:20:34.697Z,21.59
2018-07-26T00:22:27.677Z,21.59
2018-07-26T00:23:27.447Z,21.59
2018-07-26T00:25:20.278Z,21.69
2018-07-26T00:26:20.181Z,21.60
2018-07-26T00:28:13.718Z,21.63
2018-07-26T00:29:13.059Z,21.60
2018-07-26T00:31:05.755Z,21.44
2018-07-26T00:32:05.757Z,21.44
2018-07-26T00:33:58.579Z,21.48
2018-07-26T00:34:58.746Z,21.43
2018-07-26T00:36:51.334Z,21.41
2018-07-26T00:37:51.189Z,21.40
2018-07-26T00:39:44.748Z,21.34
2018-07-26T00:40:44.193Z,21.32
2018-07-26T00:42:36.919Z,21.30
2018-07-26T00:43:36.676Z,21.28
2018-07-26T00:45:29.605Z,21.22
2018-07-26T00:46:29.560Z,21.20
2018-07-26T00:48:22.332Z,21.16
2018-07-26T00:49:22.187Z,21.10
2018-07-26T00:51:15.810Z,21.05
2018-07-26T00:52:14.979Z,21.08
2018-07-26T00:54:08.877Z,20.98
2018-07-26T00:55:08.379Z,21.01
2018-07-26T00:57:01.414Z,20.97
2018-07-26T00:58:01.056Z,20.93
2018-07-26T00:59:54.388Z,20.90
2018-07-26T01:00:54.226Z,20.95
2018-07-26T01:02:47.130Z,20.86
2018-07-26T01:03:46.979Z,20.89
2018-07-26T01:05:39.965Z,20.86
2018-07-26T01:06:39.767Z,20.82
2018-07-26T01:08:33.119Z,20.86
2018-07-26T01:09:33.109Z,20.77
2018-07-26T01:11:26.443Z,20.73
2018-07-26T01:12:25.975Z,20.67
2018-07-26T01:14:19.089Z,20.73
2018-07-26T01:15:18.953Z,20.65
2018-07-26T01:17:11.855Z,20.71
2018-07-26T01:18:11.709Z,20.65
2018-07-26T01:20:04.547Z,20.63
2018-07-26T01:21:04.451Z,20.61
2018-07-26T01:22:57.293Z,20.53
2018-07-26T01:23:57.222Z,20.61
2018-07-26T01:25:50.046Z,20.64
2018-07-26T01:26:49.945Z,20.65
2018-07-26T01:28:42.808Z,20.60
2018-07-26T01:29:42.703Z,20.55
2018-07-26T01:31:35.545Z,20.48
2018-07-26T01:32:35.448Z,20.49
2018-07-26T01:34:28.297Z,20.52
2018-07-26T01:35:28.194Z,20.39
2018-07-26T01:37:21.054Z,20.48
2018-07-26T01:38:20.955Z,20.41
2018-07-26T01:40:13.808Z,20.33
2018-07-26T01:41:13.703Z,20.41
2018-07-26T01:43:06.548Z,20.44
2018-07-26T01:44:06.445Z,20.42
2018-07-26T01:45:59.299Z,20.39
2018-07-26T01:46:59.205Z,20.39
2018-07-26T01:48:52.157Z,20.39
2018-07-26T01:49:53.177Z,20.34
2018-07-26T01:51:45.025Z,20.27
2018-07-26T01:52:44.852Z,20.26
2018-07-26T01:54:37.578Z,20.23
2018-07-26T01:55:37.506Z,20.22
2018-07-26T01:57:30.431Z,20.19
2018-07-26T01:58:30.281Z,20.18
2018-07-26T02:00:23.032Z,20.17
2018-07-26T02:01:22.957Z,20.12
2018-07-26T02:03:16.329Z,20.17
2018-07-26T02:04:15.699Z,20.18
2018-07-26T02:06:08.615Z,20.15
2018-07-26T02:07:08.446Z,20.17
2018-07-26T02:09:01.803Z,20.17
2018-07-26T02:10:01.705Z,20.22
2018-07-26T02:11:54.541Z,20.17
2018-07-26T02:12:54.495Z,20.07
2018-07-26T02:14:47.326Z,20.08
2018-07-26T02:15:47.208Z,20.11
2018-07-26T02:17:40.038Z,20.14
2018-07-26T02:18:39.961Z,20.11
2018-07-26T02:20:32.805Z,20.11
2018-07-26T02:21:32.746Z,20.00
2018-07-26T02:23:26.063Z,19.90
2018-07-26T02:24:25.477Z,19.90
2018-07-26T02:26:18.316Z,19.92
2018-07-26T02:27:18.221Z,19.94
2018-07-26T02:29:16.107Z,19.93
2018-07-26T02:30:15.899Z,19.92
2018-07-26T02:32:07.803Z,19.90
2018-07-26T02:33:07.703Z,19.74
2018-07-26T02:35:00.594Z,19.89
2018-07-26T02:36:00.468Z,19.79
2018-07-26T02:37:53.281Z,19.81
2018-07-26T02:38:53.194Z,19.79
2018-07-26T02:40:46.039Z,19.71
2018-07-26T02:41:45.946Z,19.63
2018-07-26T02:43:38.790Z,19.62
2018-07-26T02:44:38.710Z,19.63
2018-07-26T02:46:32.991Z,19.67
2018-07-26T02:47:32.902Z,19.67
2018-07-26T02:49:25.726Z,19.70
2018-07-26T02:50:25.644Z,19.59
2018-07-26T02:52:18.513Z,19.68
2018-07-26T02:53:18.376Z,19.62
2018-07-26T02:55:11.390Z,19.64
2018-07-26T02:56:11.122Z,19.62
2018-07-26T02:58:03.989Z,19.57
2018-07-26T02:59:03.876Z,19.53
2018-07-26T03:00:57.237Z,19.56
2018-07-26T03:01:57.133Z,19.56
2018-07-26T03:03:50.118Z,19.49
2018-07-26T03:04:49.967Z,19.50
2018-07-26T03:06:42.768Z,19.54
2018-07-26T03:07:42.640Z,19.50
2018-07-26T03:09:35.574Z,19.59
2018-07-26T03:10:35.498Z,19.52
2018-07-26T03:12:28.340Z,19.59
2018-07-26T03:13:28.239Z,19.50
2018-07-26T03:15:21.117Z,19.50
2018-07-26T03:16:20.995Z,19.52
2018-07-26T03:18:13.841Z,19.44
2018-07-26T03:19:13.736Z,19.39
2018-07-26T03:21:06.640Z,19.45
2018-07-26T03:22:06.482Z,19.38
2018-07-26T03:23:59.350Z,19.39
2018-07-26T03:24:59.252Z,19.41
2018-07-26T03:26:52.134Z,19.41
2018-07-26T03:27:52.128Z,19.39
2018-07-26T03:29:44.862Z,19.44
2018-07-26T03:30:44.741Z,19.37
2018-07-26T03:32:37.586Z,19.41
2018-07-26T03:33:37.506Z,19.38
2018-07-26T03:35:30.338Z,19.37
2018-07-26T03:36:30.242Z,19.34
2018-07-26T03:38:23.156Z,19.32
2018-07-26T03:39:22.986Z,19.26
2018-07-26T03:41:15.836Z,19.30
2018-07-26T03:42:15.753Z,19.27
2018-07-26T03:44:08.600Z,19.24
2018-07-26T03:45:08.500Z,19.32
2018-07-26T03:47:01.320Z,19.37
2018-07-26T03:48:01.257Z,19.44
2018-07-26T03:49:54.084Z,19.37
2018-07-26T03:50:53.992Z,19.38
2018-07-26T03:52:46.889Z,19.27
2018-07-26T03:53:46.745Z,19.26
2018-07-26T03:55:39.589Z,19.34
2018-07-26T03:56:39.490Z,19.34
2018-07-26T03:58:32.313Z,19.37
2018-07-26T03:59:32.231Z,19.39
2018-07-26T04:01:25.075Z,19.34
2018-07-26T04:02:24.994Z,19.30
2018-07-26T04:04:17.838Z,19.26
2018-07-26T04:05:17.726Z,19.37
2018-07-26T04:07:10.622Z,19.26
2018-07-26T04:08:10.480Z,19.38
2018-07-26T04:10:03.956Z,19.35
2018-07-26T04:11:03.860Z,19.49
2018-07-26T04:12:56.713Z,19.42
2018-07-26T04:13:56.595Z,19.39
2018-07-26T04:15:49.467Z,19.50
2018-07-26T04:16:49.350Z,19.49
2018-07-26T04:18:42.207Z,19.54
2018-07-26T04:19:42.085Z,19.50
2018-07-26T04:21:34.954Z,19.56
2018-07-26T04:22:34.860Z,19.59
2018-07-26T04:24:27.675Z,19.63
2018-07-26T04:25:27.586Z,19.63
2018-07-26T04:27:20.444Z,19.56
2018-07-26T04:28:20.339Z,19.53
2018-07-26T04:30:13.206Z,19.62
2018-07-26T04:31:13.082Z,19.64
2018-07-26T04:33:05.954Z,19.53
2018-07-26T04:34:05.834Z,19.50
2018-07-26T04:35:58.681Z,19.59
2018-07-26T04:36:58.590Z,19.60
2018-07-26T04:38:51.433Z,19.68
2018-07-26T04:39:51.368Z,19.70
2018-07-26T04:41:44.193Z,19.68
2018-07-26T04:42:44.116Z,19.79
2018-07-26T04:44:36.924Z,19.82
2018-07-26T04:45:36.827Z,19.79
2018-07-26T04:47:29.704Z,19.78
2018-07-26T04:48:29.610Z,19.79
2018-07-26T04:50:22.422Z,19.78
2018-07-26T04:51:22.355Z,19.87
2018-07-26T04:53:15.740Z,19.90
2018-07-26T04:54:15.091Z,20.05
2018-07-26T04:56:07.955Z,20.04
2018-07-26T04:57:07.840Z,20.08
2018-07-26T04:59:00.720Z,20.00
2018-07-26T05:00:00.584Z,19.99
2018-07-26T05:01:53.440Z,20.00
2018-07-26T05:02:53.325Z,20.04
2018-07-26T05:04:46.184Z,20.12
2018-07-26T05:05:46.100Z,20.19
2018-07-26T05:07:38.990Z,20.19
2018-07-26T05:08:38.845Z,20.14
2018-07-26T05:10:31.670Z,20.17
2018-07-26T05:11:31.603Z,20.15
2018-07-26T05:13:24.428Z,20.29
2018-07-26T05:14:24.343Z,20.29
2018-07-26T05:16:17.181Z,20.41
2018-07-26T05:17:17.085Z,20.39
2018-07-26T05:19:10.009Z,20.42
2018-07-26T05:20:09.854Z,20.46
2018-07-26T05:22:02.710Z,20.50
2018-07-26T05:23:02.574Z,20.46
2018-07-26T05:24:55.437Z,20.56
2018-07-26T05:25:55.325Z,20.61
2018-07-26T05:27:48.263Z,20.82
2018-07-26T05:28:48.084Z,20.83
2018-07-26T05:30:40.950Z,20.95
2018-07-26T05:31:40.841Z,21.00
2018-07-26T05:33:33.714Z,21.01
2018-07-26T05:34:33.581Z,21.11
2018-07-26T05:36:26.442Z,21.29
2018-07-26T05:37:26.331Z,21.37
2018-07-26T05:39:19.178Z,21.38
2018-07-26T05:40:19.076Z,21.45
2018-07-26T05:42:11.951Z,21.55
2018-07-26T05:43:11.856Z,21.63
2018-07-26T05:45:04.669Z,21.71
2018-07-26T05:46:04.571Z,21.78
2018-07-26T05:47:57.436Z,21.71
2018-07-26T05:48:57.326Z,21.90
2018-07-26T05:50:50.177Z,21.97
2018-07-26T05:51:50.082Z,21.97
2018-07-26T05:53:42.955Z,21.98
2018-07-26T05:54:42.852Z,22.01
2018-07-26T05:56:35.737Z,22.22
2018-07-26T05:57:35.573Z,22.22
2018-07-26T05:59:28.928Z,22.23
2018-07-26T06:00:28.344Z,22.28
2018-07-26T06:02:21.591Z,22.36
2018-07-26T06:03:21.550Z,22.40
2018-07-26T06:05:14.333Z,22.55
2018-07-26T06:06:14.234Z,22.53
2018-07-26T06:08:07.593Z,22.62
2018-07-26T06:09:06.987Z,22.68
2018-07-26T06:10:59.819Z,22.70
2018-07-26T06:11:59.737Z,22.86
2018-07-26T06:13:52.586Z,22.92
2018-07-26T06:14:52.492Z,23.01
2018-07-26T06:16:45.352Z,23.06
2018-07-26T06:17:45.265Z,23.06
2018-07-26T06:19:38.109Z,23.15
2018-07-26T06:20:38.032Z,23.31
2018-07-26T06:22:31.243Z,23.31
2018-07-26T06:23:31.166Z,23.37
2018-07-26T06:25:24.516Z,23.37
2018-07-26T06:26:24.312Z,23.55
2018-07-26T06:28:17.234Z,23.51
2018-07-26T06:29:17.051Z,23.61
2018-07-26T06:31:10.057Z,23.76
2018-07-26T06:32:09.802Z,23.81
2018-07-26T06:34:02.667Z,23.89
2018-07-26T06:35:02.552Z,23.94
2018-07-26T06:36:55.417Z,23.97
2018-07-26T06:37:55.299Z,24.08
2018-07-26T06:39:48.245Z,24.11
2018-07-26T06:40:48.181Z,24.19
2018-07-26T06:42:41.045Z,24.31
2018-07-26T06:43:40.934Z,24.40
2018-07-26T06:45:33.755Z,24.51
2018-07-26T06:46:33.698Z,24.52
2018-07-26T06:48:26.529Z,24.66
2018-07-26T06:49:26.404Z,24.84
2018-07-26T06:51:19.259Z,24.81
2018-07-26T06:52:19.157Z,24.82
2018-07-26T06:54:12.016Z,24.96
2018-07-26T06:55:11.899Z,24.99
2018-07-26T06:57:04.749Z,25.00
2018-07-26T06:58:04.665Z,25.08
2018-07-26T06:59:57.516Z,25.08
2018-07-26T07:00:57.399Z,25.11
2018-07-26T07:02:50.260Z,25.26
2018-07-26T07:03:50.148Z,25.22
2018-07-26T07:05:43.012Z,25.31
2018-07-26T07:06:44.281Z,25.31
2018-07-26T07:08:35.743Z,25.36
2018-07-26T07:09:35.650Z,25.38
2018-07-26T07:11:28.482Z,25.49
2018-07-26T07:12:28.401Z,25.49
2018-07-26T07:14:21.262Z,25.59
2018-07-26T07:15:21.153Z,25.63
2018-07-26T07:17:13.977Z,25.63
2018-07-26T07:18:13.901Z,25.71
2018-07-26T07:20:06.748Z,25.74
2018-07-26T07:21:06.650Z,25.70
2018-07-26T07:22:59.503Z,25.89
2018-07-26T07:23:59.418Z,25.90
2018-07-26T07:25:52.237Z,25.90
2018-07-26T07:26:52.149Z,26.01
2018-07-26T07:28:45.034Z,26.20
2018-07-26T07:29:44.903Z,26.27
2018-07-26T07:31:37.753Z,26.31
2018-07-26T07:32:37.664Z,26.43
2018-07-26T07:34:30.525Z,26.65
2018-07-26T07:35:30.429Z,26.57
2018-07-26T07:37:23.251Z,26.61
2018-07-26T07:38:23.144Z,26.61
2018-07-26T07:40:15.986Z,26.58
2018-07-26T07:41:15.912Z,26.70
2018-07-26T07:43:08.728Z,26.78
2018-07-26T07:44:08.650Z,26.93
2018-07-26T07:46:01.498Z,26.93
2018-07-26T07:47:01.432Z,27.01
2018-07-26T07:48:54.254Z,27.19
2018-07-26T07:49:54.156Z,27.13
2018-07-26T07:51:47.522Z,27.16
2018-07-26T07:52:46.920Z,27.19
2018-07-26T07:54:39.757Z,27.12
2018-07-26T07:55:39.641Z,27.16
2018-07-26T07:57:32.482Z,27.17
2018-07-26T07:58:32.415Z,27.17
2018-07-26T08:00:25.238Z,27.12
2018-07-26T08:01:25.168Z,27.23
2018-07-26T08:03:17.993Z,27.04
2018-07-26T08:04:17.908Z,27.20
2018-07-26T08:06:10.755Z,27.20
2018-07-26T08:07:10.677Z,27.25
2018-07-26T08:09:03.478Z,27.34
2018-07-26T08:10:03.398Z,27.40
2018-07-26T08:11:57.085Z,27.38
2018-07-26T08:12:56.962Z,27.41
2018-07-26T08:14:49.804Z,27.54
2018-07-26T08:15:49.725Z,27.66
2018-07-26T08:17:42.590Z,27.93
2018-07-26T08:18:42.469Z,28.01
2018-07-26T08:20:43.990Z,28.27
2018-07-26T08:21:45.293Z,28.31
2018-07-26T08:23:36.562Z,28.46
2018-07-26T08:24:36.474Z,28.64
2018-07-26T08:26:29.325Z,28.69
2018-07-26T08:27:29.225Z,28.80
2018-07-26T08:29:22.155Z,28.87
2018-07-26T08:30:22.011Z,28.96
2018-07-26T08:32:14.843Z,29.07
2018-07-26T08:33:14.718Z,29.15
2018-07-26T08:35:07.593Z,29.18
2018-07-26T08:36:07.503Z,29.33
2018-07-26T08:38:00.831Z,29.29
2018-07-26T08:39:00.207Z,29.29
2018-07-26T08:40:53.064Z,29.40
2018-07-26T08:41:52.969Z,29.52
2018-07-26T08:43:45.888Z,29.66
2018-07-26T08:44:45.704Z,29.81
2018-07-26T08:46:38.576Z,30.02
2018-07-26T08:47:38.455Z,30.18
2018-07-26T08:49:31.291Z,30.17
2018-07-26T08:50:31.213Z,30.18
2018-07-26T08:52:24.075Z,30.28
2018-07-26T08:53:23.965Z,30.24
2018-07-26T08:55:16.804Z,30.30
2018-07-26T08:56:16.708Z,30.29
2018-07-26T08:58:09.591Z,30.36
2018-07-26T08:59:09.452Z,30.45
2018-07-26T09:01:02.334Z,30.24
2018-07-26T09:02:02.204Z,30.22
2018-07-26T09:03:55.052Z,30.40
2018-07-26T09:04:54.961Z,30.43
2018-07-26T09:06:47.794Z,30.45
2018-07-26T09:07:47.746Z,30.52
2018-07-26T09:09:40.574Z,30.70
2018-07-26T09:10:40.448Z,30.70
2018-07-26T09:12:33.370Z,30.93
2018-07-26T09:13:33.324Z,30.93
2018-07-26T09:15:26.576Z,31.07
2018-07-26T09:16:26.499Z,31.22
2018-07-26T09:18:19.326Z,31.32
2018-07-26T09:19:19.217Z,31.26
2018-07-26T09:21:12.089Z,31.27
2018-07-26T09:22:11.980Z,31.20
2018-07-26T09:24:04.923Z,31.12
2018-07-26T09:25:04.714Z,31.20
2018-07-26T09:26:57.610Z,31.01
2018-07-26T09:27:57.461Z,30.86
2018-07-26T09:29:50.326Z,30.95
2018-07-26T09:30:50.216Z,30.86
2018-07-26T09:32:43.073Z,30.90
2018-07-26T09:33:42.964Z,30.99
2018-07-26T09:35:35.927Z,31.26
2018-07-26T09:36:35.720Z,31.24
2018-07-26T09:38:28.559Z,31.27
2018-07-26T09:39:28.464Z,31.19
2018-07-26T09:41:21.302Z,31.30
2018-07-26T09:42:21.221Z,31.37
2018-07-26T09:44:14.054Z,31.07
2018-07-26T09:45:13.964Z,31.10
2018-07-26T09:47:06.821Z,31.30
2018-07-26T09:48:06.704Z,31.34
2018-07-26T09:49:59.569Z,31.32
2018-07-26T09:50:59.457Z,31.26
2018-07-26T09:52:52.292Z,31.44
2018-07-26T09:53:52.227Z,31.59
2018-07-26T09:55:45.063Z,31.45
2018-07-26T09:56:44.982Z,31.56
2018-07-26T09:58:38.318Z,31.38
2018-07-26T09:59:38.234Z,31.26
2018-07-26T10:01:31.070Z,31.34
2018-07-26T10:02:30.961Z,31.24
2018-07-26T10:04:23.830Z,31.19
2018-07-26T10:05:23.771Z,31.23
2018-07-26T10:07:16.567Z,31.41
2018-07-26T10:08:16.465Z,31.63
2018-07-26T10:10:09.311Z,31.89
2018-07-26T10:11:09.217Z,31.86
2018-07-26T10:13:02.053Z,31.90
2018-07-26T10:14:01.974Z,31.79
2018-07-26T10:15:54.905Z,31.67
2018-07-26T10:16:54.724Z,31.76
2018-07-26T10:18:47.560Z,31.94
2018-07-26T10:19:47.469Z,31.99
2018-07-26T10:21:40.376Z,32.14
2018-07-26T10:22:40.212Z,32.14
2018-07-26T10:24:33.084Z,32.23
2018-07-26T10:25:32.973Z,32.35
2018-07-26T10:27:25.807Z,31.94
2018-07-26T10:28:25.718Z,31.95
2018-07-26T10:30:18.564Z,31.78
2018-07-26T10:31:18.466Z,31.67
2018-07-26T10:33:11.350Z,31.67
2018-07-26T10:34:11.212Z,31.67
2018-07-26T10:36:04.073Z,31.76
2018-07-26T10:37:03.960Z,31.76
2018-07-26T10:38:56.792Z,31.95
2018-07-26T10:39:56.727Z,32.13
2018-07-26T10:41:49.569Z,32.41
2018-07-26T10:42:49.484Z,32.31
2018-07-26T10:44:42.303Z,32.27
2018-07-26T10:45:42.209Z,32.46
2018-07-26T10:47:35.078Z,32.77
2018-07-26T10:48:34.954Z,32.57
2018-07-26T10:50:27.824Z,32.64
2018-07-26T10:51:27.707Z,32.63
2018-07-26T10:53:20.554Z,32.58
2018-07-26T10:54:20.477Z,32.60
2018-07-26T10:56:13.298Z,32.64
2018-07-26T10:57:13.218Z,32.68
2018-07-26T10:59:06.562Z,32.69
2018-07-26T11:00:06.465Z,32.75
2018-07-26T11:01:59.338Z,32.68
2018-07-26T11:02:59.216Z,32.63
2018-07-26T11:04:52.097Z,32.58
2018-07-26T11:05:52.093Z,32.46
2018-07-26T11:07:44.838Z,32.43
2018-07-26T11:08:44.797Z,32.63
2018-07-26T11:10:37.567Z,32.97
2018-07-26T11:11:37.471Z,33.12
2018-07-26T11:13:30.323Z,33.03
2018-07-26T11:14:30.226Z,32.92
2018-07-26T11:16:23.046Z,33.03
2018-07-26T11:17:22.974Z,32.97
2018-07-26T11:19:15.813Z,32.92
2018-07-26T11:20:15.737Z,32.85
2018-07-26T11:22:08.578Z,32.92
2018-07-26T11:23:08.472Z,32.79
2018-07-26T11:25:01.299Z,32.69
2018-07-26T11:26:01.219Z,32.73
2018-07-26T11:27:54.066Z,32.90
2018-07-26T11:28:53.965Z,33.13
2018-07-26T11:30:46.805Z,33.42
2018-07-26T11:31:46.729Z,33.60
2018-07-26T11:33:39.587Z,33.82
2018-07-26T11:34:39.467Z,33.79
2018-07-26T11:36:32.300Z,34.06
2018-07-26T11:37:32.219Z,34.03
2018-07-26T11:39:25.067Z,33.30
2018-07-26T11:40:24.968Z,33.17
2018-07-26T11:42:17.811Z,33.16
2018-07-26T11:43:17.735Z,33.42
2018-07-26T11:45:10.577Z,33.79
2018-07-26T11:46:10.464Z,34.08
2018-07-26T11:48:03.323Z,34.25
2018-07-26T11:49:03.214Z,34.29
2018-07-26T11:50:56.049Z,34.59
2018-07-26T11:51:55.960Z,34.63
2018-07-26T11:53:48.808Z,34.75
2018-07-26T11:54:48.713Z,34.83
2018-07-26T11:56:41.547Z,35.05
2018-07-26T11:57:41.459Z,35.19
2018-07-26T11:59:34.330Z,35.04
2018-07-26T12:00:34.211Z,35.05
2018-07-26T12:02:27.109Z,35.24
2018-07-26T12:03:26.972Z,35.26
2018-07-26T12:05:20.847Z,35.48
2018-07-26T12:06:20.731Z,35.48
2018-07-26T12:08:13.640Z,35.05
2018-07-26T12:09:13.485Z,34.55
2018-07-26T12:11:06.331Z,33.98
2018-07-26T12:12:06.251Z,33.76
2018-07-26T12:13:59.088Z,33.66
2018-07-26T12:14:59.011Z,33.54
2018-07-26T12:16:51.827Z,33.62
2018-07-26T12:17:51.772Z,33.63
2018-07-26T12:19:44.622Z,33.93
2018-07-26T12:20:44.492Z,34.03
2018-07-26T12:22:37.353Z,34.18
2018-07-26T12:23:37.234Z,34.30
2018-07-26T12:25:30.649Z,34.30
2018-07-26T12:26:30.500Z,34.32
2018-07-26T12:28:23.368Z,33.92
2018-07-26T12:29:23.243Z,33.85
2018-07-26T12:31:16.084Z,33.63
2018-07-26T12:32:15.994Z,33.45
2018-07-26T12:34:08.842Z,33.41
2018-07-26T12:35:08.754Z,33.22
2018-07-26T12:37:01.587Z,33.64
2018-07-26T12:38:01.492Z,33.95
2018-07-26T12:39:54.379Z,34.03
2018-07-26T12:40:54.262Z,34.13
2018-07-26T12:42:47.069Z,34.34
2018-07-26T12:43:47.003Z,34.44
2018-07-26T12:45:39.839Z,34.82
2018-07-26T12:46:39.748Z,35.01
2018-07-26T12:48:32.590Z,34.95
2018-07-26T12:49:32.510Z,34.90
2018-07-26T12:51:25.335Z,35.13
2018-07-26T12:52:25.251Z,35.20
2018-07-26T12:54:18.095Z,35.19
2018-07-26T12:55:17.993Z,35.32
2018-07-26T12:57:10.842Z,34.80
2018-07-26T12:58:10.840Z,34.60
2018-07-26T13:00:04.410Z,34.63
2018-07-26T13:01:04.314Z,34.76
2018-07-26T13:02:57.147Z,34.78
2018-07-26T13:03:57.073Z,34.62
2018-07-26T13:05:49.939Z,34.11
2018-07-26T13:06:49.828Z,33.95
2018-07-26T13:08:42.685Z,33.79
2018-07-26T13:09:42.560Z,33.95
2018-07-26T13:11:35.401Z,33.78
2018-07-26T13:12:35.303Z,33.93
2018-07-26T13:14:28.174Z,34.19
2018-07-26T13:15:28.070Z,34.44
2018-07-26T13:17:20.989Z,34.60
2018-07-26T13:18:20.804Z,34.35
2018-07-26T13:20:13.694Z,34.06
2018-07-26T13:21:13.572Z,33.88
2018-07-26T13:23:06.407Z,33.92
2018-07-26T13:24:06.358Z,33.95
2018-07-26T13:25:59.219Z,33.95
2018-07-26T13:26:59.131Z,33.91
2018-07-26T13:28:52.915Z,34.22
2018-07-26T13:29:51.885Z,34.35
2018-07-26T13:31:44.919Z,34.76
2018-07-26T13:32:44.697Z,34.72
2018-07-26T13:34:37.517Z,34.70
2018-07-26T13:35:37.420Z,34.44
2018-07-26T13:37:30.220Z,34.35
2018-07-26T13:38:30.121Z,34.30
2018-07-26T13:40:23.062Z,34.42
2018-07-26T13:41:22.917Z,34.63
2018-07-26T13:43:15.755Z,34.32
2018-07-26T13:44:15.669Z,34.48
2018-07-26T13:46:08.507Z,34.82
2018-07-26T13:47:08.415Z,34.97
2018-07-26T13:49:01.250Z,34.55
2018-07-26T13:50:01.164Z,34.32
2018-07-26T13:51:54.296Z,34.40
2018-07-26T13:52:54.216Z,34.47
2018-07-26T13:54:47.049Z,34.86
2018-07-26T13:55:46.967Z,35.01
2018-07-26T13:57:39.808Z,35.47
2018-07-26T13:58:39.723Z,35.83
2018-07-26T14:00:32.543Z,35.95
2018-07-26T14:01:32.468Z,35.92
2018-07-26T14:03:25.314Z,35.79
2018-07-26T14:04:25.202Z,35.87
2018-07-26T14:06:18.064Z,35.31
2018-07-26T14:07:17.955Z,35.16
2018-07-26T14:09:10.821Z,34.57
2018-07-26T14:10:10.708Z,34.30
2018-07-26T14:12:03.544Z,34.32
2018-07-26T14:13:03.460Z,34.18
2018-07-26T14:14:56.286Z,34.03
2018-07-26T14:15:56.253Z,33.93
2018-07-26T14:17:49.145Z,34.20
2018-07-26T14:18:48.953Z,34.66
2018-07-26T14:20:41.817Z,34.98
2018-07-26T14:21:41.668Z,35.20
2018-07-26T14:23:34.511Z,35.65
2018-07-26T14:24:34.425Z,35.88
2018-07-26T14:26:27.241Z,36.51
2018-07-26T14:27:27.203Z,36.75
2018-07-26T14:29:20.090Z,36.91
2018-07-26T14:30:19.949Z,36.85
2018-07-26T14:32:12.831Z,36.25
2018-07-26T14:33:12.699Z,35.94
2018-07-26T14:35:05.533Z,34.56
2018-07-26T14:36:05.460Z,34.32
2018-07-26T14:37:58.324Z,34.01
2018-07-26T14:38:58.201Z,34.23
2018-07-26T14:40:51.033Z,34.32
2018-07-26T14:41:50.962Z,34.30
2018-07-26T14:43:43.859Z,34.52
2018-07-26T14:44:43.706Z,34.92
2018-07-26T14:46:36.541Z,35.32
2018-07-26T14:47:36.455Z,35.35
2018-07-26T14:49:29.342Z,35.60
2018-07-26T14:50:29.204Z,35.76
2018-07-26T14:52:22.130Z,35.51
2018-07-26T14:53:22.006Z,35.17
2018-07-26T14:55:14.833Z,34.97
2018-07-26T14:56:14.704Z,34.62
2018-07-26T14:58:07.561Z,34.63
2018-07-26T14:59:07.453Z,34.53
2018-07-26T15:01:00.381Z,34.73
2018-07-26T15:02:00.195Z,34.70
2018-07-26T15:03:53.155Z,34.50
2018-07-26T15:04:53.064Z,34.73
2018-07-26T15:06:45.889Z,34.76
2018-07-26T15:07:45.810Z,34.98
2018-07-26T15:09:38.655Z,34.90
2018-07-26T15:10:38.567Z,34.94
2018-07-26T15:12:31.397Z,35.09
2018-07-26T15:13:31.298Z,35.21
2018-07-26T15:15:24.142Z,35.77
2018-07-26T15:16:24.055Z,35.76
2018-07-26T15:18:16.897Z,36.11
2018-07-26T15:19:16.815Z,36.75
2018-07-26T15:21:09.635Z,37.89
2018-07-26T15:22:09.548Z,37.98
2018-07-26T15:24:03.038Z,37.08
2018-07-26T15:25:02.963Z,36.64
2018-07-26T15:26:56.255Z,36.14
2018-07-26T15:27:56.183Z,35.90
2018-07-26T15:29:49.031Z,35.38
2018-07-26T15:30:48.925Z,35.48
2018-07-26T15:32:41.799Z,35.65
2018-07-26T15:33:41.670Z,35.70
2018-07-26T15:35:34.528Z,35.95
2018-07-26T15:36:34.433Z,36.14
2018-07-26T15:38:27.254Z,36.47
2018-07-26T15:39:27.166Z,36.70
2018-07-26T15:41:20.040Z,37.32
2018-07-26T15:42:19.983Z,38.08
2018-07-26T15:44:12.859Z,38.45
2018-07-26T15:45:12.772Z,38.26
2018-07-26T15:47:05.657Z,37.42
2018-07-26T15:48:05.525Z,37.16
2018-07-26T15:49:58.901Z,36.35
2018-07-26T15:50:58.830Z,36.00
2018-07-26T15:52:51.620Z,37.08
2018-07-26T15:53:51.540Z,37.89
2018-07-26T15:55:44.469Z,38.52
2018-07-26T15:56:44.286Z,38.73
2018-07-26T15:58:37.229Z,39.42
2018-07-26T15:59:37.140Z,38.76
2018-07-26T16:01:30.029Z,37.62
2018-07-26T16:02:29.883Z,37.38
2018-07-26T16:04:22.717Z,37.67
2018-07-26T16:05:22.748Z,38.32
2018-07-26T16:07:15.550Z,39.06
2018-07-26T16:08:15.397Z,39.49
2018-07-26T16:10:08.266Z,40.10
2018-07-26T16:11:08.136Z,39.98
2018-07-26T16:13:01.593Z,39.28
2018-07-26T16:14:01.496Z,39.49
2018-07-26T16:15:54.458Z,39.60
2018-07-26T16:16:54.348Z,38.76
2018-07-26T16:18:47.186Z,37.37
2018-07-26T16:19:47.117Z,37.47
2018-07-26T16:21:40.046Z,38.41
2018-07-26T16:22:39.962Z,39.16
2018-07-26T16:24:32.902Z,39.60
2018-07-26T16:25:32.825Z,39.95
2018-07-26T16:27:26.165Z,40.65
2018-07-26T16:28:26.068Z,40.84
2018-07-26T16:30:18.912Z,40.45
2018-07-26T16:31:18.821Z,39.73
2018-07-26T16:33:13.202Z,38.71
2018-07-26T16:34:13.113Z,38.23
2018-07-26T16:36:06.540Z,36.57
2018-07-26T16:37:06.462Z,36.25
2018-07-26T16:38:59.428Z,36.86
2018-07-26T16:39:59.401Z,37.65
2018-07-26T16:41:52.696Z,38.91
2018-07-26T16:42:52.075Z,39.43
2018-07-26T16:44:45.931Z,40.13
2018-07-26T16:45:45.847Z,40.56
2018-07-26T16:47:39.213Z,41.05
2018-07-26T16:48:39.130Z,41.04
2018-07-26T16:50:33.066Z,41.12
2018-07-26T16:51:32.996Z,41.11
2018-07-26T16:53:25.926Z,40.80
2018-07-26T16:54:25.830Z,40.02
2018-07-26T16:56:18.784Z,37.96
2018-07-26T16:57:18.686Z,37.08
2018-07-26T16:59:11.628Z,36.57
2018-07-26T17:00:11.563Z,36.63
2018-07-26T17:02:04.469Z,36.88
2018-07-26T17:03:04.407Z,37.26
2018-07-26T17:04:58.253Z,37.80
2018-07-26T17:05:58.194Z,38.45
2018-07-26T17:07:51.210Z,39.35
2018-07-26T17:08:51.128Z,39.68
2018-07-26T17:10:44.557Z,40.41
2018-07-26T17:11:44.481Z,40.05
2018-07-26T17:13:37.486Z,39.76
2018-07-26T17:14:37.384Z,38.42
2018-07-26T17:16:30.296Z,37.45
2018-07-26T17:17:30.215Z,36.88
2018-07-26T17:19:23.144Z,36.11
2018-07-26T17:20:23.037Z,35.87
2018-07-26T17:22:15.988Z,35.87
2018-07-26T17:23:15.915Z,36.25
2018-07-26T17:25:08.913Z,36.78
2018-07-26T17:26:08.793Z,36.02
2018-07-26T17:28:01.708Z,36.02
2018-07-26T17:29:01.660Z,36.66
2018-07-26T17:30:54.523Z,38.02
2018-07-26T17:31:54.465Z,38.74
2018-07-26T17:33:47.427Z,39.31
2018-07-26T17:34:47.321Z,39.57
2018-07-26T17:36:40.231Z,39.64
2018-07-26T17:37:40.168Z,39.77
2018-07-26T17:39:33.092Z,39.61
2018-07-26T17:40:33.031Z,39.65
2018-07-26T17:42:25.994Z,39.94
2018-07-26T17:43:25.864Z,39.84
2018-07-26T17:45:18.815Z,40.01
2018-07-26T17:46:18.712Z,40.18
2018-07-26T17:48:11.646Z,40.05
2018-07-26T17:49:11.562Z,39.76
2018-07-26T17:51:04.498Z,39.57
2018-07-26T17:52:04.416Z,39.45
2018-07-26T17:53:57.350Z,39.20
2018-07-26T17:54:57.278Z,39.36
2018-07-26T17:56:50.227Z,39.17
2018-07-26T17:57:50.144Z,39.16
2018-07-26T17:59:43.077Z,38.92
2018-07-26T18:00:42.979Z,38.91
2018-07-26T18:02:35.908Z,38.92
2018-07-26T18:03:35.851Z,38.97
2018-07-26T18:05:28.778Z,39.31
2018-07-26T18:06:28.684Z,39.24
2018-07-26T18:08:21.620Z,38.48
2018-07-26T18:09:21.542Z,37.34
2018-07-26T18:11:14.494Z,35.39
2018-07-26T18:12:14.391Z,34.56
2018-07-26T18:14:07.312Z,33.41
2018-07-26T18:15:07.227Z,32.91
2018-07-26T18:17:00.700Z,32.53
2018-07-26T18:18:00.600Z,32.43
2018-07-26T18:19:53.989Z,32.11
2018-07-26T18:20:53.872Z,31.89
2018-07-26T18:22:46.811Z,31.81
2018-07-26T18:23:46.709Z,31.82
2018-07-26T18:25:39.644Z,31.95
2018-07-26T18:26:39.568Z,32.13
2018-07-26T18:28:32.427Z,32.27
2018-07-26T18:29:32.318Z,32.24
2018-07-26T18:31:25.192Z,32.31
2018-07-26T18:32:25.089Z,32.28